Time;durP1;ratioP1;P1;durP2;ratioP2;P2;SDS_P1;SDS_P2;PMS_P1;PMS_P2;Temp;Humidity;BMP_temperature;BMP_pressure;BME280_temperature;BME280_humidity;BME280_pressure;Samples;Min_cycle;Max_cycle;Signal;HPM_P1;HPM_P2
2023/02/10 00:01:05;;;;;;;1999.90;999.90;;;-3.20;99.90;;;;;;5112250;28;20437;-66
2023/02/10 00:03:32;;;;;;;1999.90;999.90;;;-3.30;99.90;;;;;;5112644;28;20460;-67
2023/02/10 00:05:59;;;;;;;1999.90;999.90;;;-3.30;99.90;;;;;;5112963;28;20472;-66
2023/02/10 00:08:28;;;;;;;1999.90;999.90;;;-3.30;99.90;;;;;;5112527;28;20449;-66
2023/02/10 00:10:58;;;;;;;1999.90;999.90;;;-3.40;99.90;;;;;;5113159;28;20456;-66
2023/02/10 00:13:24;;;;;;;1999.90;999.90;;;-3.40;99.90;;;;;;5112127;27;20445;-67
2023/02/10 00:15:52;;;;;;;1999.90;999.90;;;-3.40;99.90;;;;;;5112851;28;20452;-67
2023/02/10 00:18:18;;;;;;;1999.90;999.90;;;-3.40;99.90;;;;;;5112776;28;20452;-66
2023/02/10 00:20:45;;;;;;;1999.90;999.90;;;-3.40;99.90;;;;;;5112413;28;20822;-67
2023/02/10 00:23:12;;;;;;;1999.90;999.90;;;-3.30;99.90;;;;;;5112660;28;20456;-67
2023/02/10 00:25:40;;;;;;;1999.90;999.90;;;-3.30;99.90;;;;;;5112474;28;20476;-67
2023/02/10 00:28:07;;;;;;;1999.90;999.90;;;-3.30;99.90;;;;;;5112627;28;20457;-65
2023/02/10 00:30:34;;;;;;;1999.90;999.90;;;-3.30;99.90;;;;;;5112671;28;20494;-67
2023/02/10 00:33:01;;;;;;;1999.90;999.90;;;-3.30;99.90;;;;;;5112175;28;20957;-66
2023/02/10 00:35:27;;;;;;;1999.90;999.90;;;-3.20;99.90;;;;;;5112785;28;20813;-67
2023/02/10 00:37:54;;;;;;;1999.90;999.90;;;-3.20;99.90;;;;;;5112028;28;20461;-67
2023/02/10 00:40:21;;;;;;;1999.90;999.90;;;-3.20;99.90;;;;;;5112334;28;20445;-67
2023/02/10 00:42:49;;;;;;;1999.90;999.90;;;-3.30;99.90;;;;;;5111547;28;20449;-67
2023/02/10 00:45:16;;;;;;;1999.90;999.90;;;-3.30;99.90;;;;;;5112234;28;20452;-67
2023/02/10 00:47:43;;;;;;;1999.90;999.90;;;-3.20;99.90;;;;;;5112487;27;20465;-67
2023/02/10 00:50:09;;;;;;;1999.90;999.90;;;-3.30;99.90;;;;;;5111819;28;21222;-67
2023/02/10 00:52:37;;;;;;;1999.90;999.90;;;-3.30;99.90;;;;;;5109947;28;20460;-66
2023/02/10 00:55:05;;;;;;;1999.90;999.90;;;-3.30;99.90;;;;;;5111712;28;20449;-67
2023/02/10 00:57:32;;;;;;;1999.90;999.90;;;-3.40;99.90;;;;;;5111435;28;20491;-67
2023/02/10 01:00:00;;;;;;;1999.90;999.90;;;-3.40;99.90;;;;;;5111700;28;20445;-66
2023/02/10 01:02:26;;;;;;;1999.90;999.90;;;-3.40;99.90;;;;;;5111070;28;20535;-67
2023/02/10 01:04:53;;;;;;;1999.90;999.90;;;-3.40;99.90;;;;;;5112060;28;20449;-66
2023/02/10 01:07:20;;;;;;;1999.90;999.90;;;-3.40;99.90;;;;;;5111835;28;20492;-67
2023/02/10 01:09:47;;;;;;;1999.90;999.90;;;-3.50;99.90;;;;;;5112407;28;20441;-66
2023/02/10 01:12:13;;;;;;;1999.90;999.90;;;-3.40;99.90;;;;;;5111681;28;20537;-67
2023/02/10 01:14:40;;;;;;;1999.90;999.90;;;-3.40;99.90;;;;;;5111234;28;20449;-66
2023/02/10 01:17:08;;;;;;;1999.90;999.90;;;-3.40;99.90;;;;;;5111615;28;20970;-66
2023/02/10 01:19:35;;;;;;;1999.90;999.90;;;-3.40;99.90;;;;;;5111204;28;20969;-66
2023/02/10 01:22:02;;;;;;;1999.90;999.90;;;-3.30;99.90;;;;;;5111601;28;20939;-66
2023/02/10 01:24:28;;;;;;;1999.90;999.90;;;-3.40;99.90;;;;;;5110989;28;20449;-67
2023/02/10 01:26:55;;;;;;;1999.90;999.90;;;-3.50;99.90;;;;;;5110953;28;20493;-67
2023/02/10 01:29:22;;;;;;;1999.90;999.90;;;-3.50;99.90;;;;;;5111313;28;20452;-67
2023/02/10 01:31:49;;;;;;;1999.90;999.90;;;-3.50;99.90;;;;;;5110934;28;20460;-66
2023/02/10 01:34:17;;;;;;;1999.90;999.90;;;-3.50;99.90;;;;;;5111411;28;20449;-67
2023/02/10 01:36:44;;;;;;;1999.90;999.90;;;-3.50;99.90;;;;;;5111011;28;20461;-68
2023/02/10 01:39:10;;;;;;;1999.90;999.90;;;-3.60;99.90;;;;;;5110981;28;20542;-67
2023/02/10 01:41:37;;;;;;;1999.90;999.90;;;-3.60;99.90;;;;;;5111200;28;20452;-67
2023/02/10 01:44:06;;;;;;;1999.90;999.90;;;-3.70;99.90;;;;;;5110284;28;20485;-67
2023/02/10 01:46:34;;;;;;;1999.90;999.90;;;-3.60;99.90;;;;;;5111047;28;20485;-67
2023/02/10 01:49:04;;;;;;;1999.90;999.90;;;-3.70;99.90;;;;;;5111000;28;20441;-66
2023/02/10 01:51:39;;;;;;;1999.90;999.90;;;-3.70;99.90;;;;;;5111024;28;20453;-67
2023/02/10 01:54:09;;;;;;;1999.90;999.90;;;-3.60;99.90;;;;;;5110338;28;20445;-67
2023/02/10 01:56:36;;;;;;;1999.90;999.90;;;-3.60;99.90;;;;;;5110325;28;20461;-67
2023/02/10 01:59:03;;;;;;;1999.90;999.90;;;-3.70;99.90;;;;;;5110145;28;20452;-67
2023/02/10 02:01:30;;;;;;;1999.90;999.90;;;-3.80;99.90;;;;;;5110427;28;20453;-68
2023/02/10 02:03:57;;;;;;;1999.90;999.90;;;-3.70;99.90;;;;;;5110078;28;20445;-67
2023/02/10 02:06:24;;;;;;;1999.90;999.90;;;-3.80;99.90;;;;;;5110377;28;20860;-67
2023/02/10 02:08:52;;;;;;;1999.90;999.90;;;-3.80;99.90;;;;;;5110371;28;20450;-67
2023/02/10 02:11:24;;;;;;;1999.90;999.90;;;-3.80;99.90;;;;;;5110527;28;20452;-67
2023/02/10 02:14:14;;;;;;;1999.90;999.90;;;-3.80;99.90;;;;;;5109661;28;20452;-67
2023/02/10 02:16:53;;;;;;;1999.90;999.90;;;-3.80;99.90;;;;;;5110587;28;20839;-67
2023/02/10 02:19:49;;;;;;;1999.90;999.90;;;-3.60;99.90;;;;;;5110159;28;20440;-67
2023/02/10 02:22:41;;;;;;;1999.90;999.90;;;-3.70;99.90;;;;;;5101648;28;20461;-66
2023/02/10 02:25:27;;;;;;;1999.90;999.90;;;-3.60;99.90;;;;;;5109889;28;20441;-66
2023/02/10 02:31:52;;;;;;;1999.90;999.90;;;-3.60;99.90;;;;;;5099720;22;21037;-69
2023/02/10 02:34:29;;;;;;;1999.90;999.90;;;-3.70;99.90;;;;;;5062667;28;20445;-69
2023/02/10 02:37:00;;;;;;;1999.90;999.90;;;-3.70;99.90;;;;;;5069972;28;21056;-69
2023/02/10 02:39:28;;;;;;;1999.90;999.90;;;-3.70;99.90;;;;;;5060878;28;20458;-70
2023/02/10 02:42:15;;;;;;;1999.90;999.90;;;-3.60;99.90;;;;;;5050182;28;20466;-69
2023/02/10 02:44:43;;;;;;;1999.90;999.90;;;-3.70;99.90;;;;;;5049804;28;20943;-70
2023/02/10 02:47:18;;;;;;;1999.90;999.90;;;-3.70;99.90;;;;;;5050361;28;20490;-69
2023/02/10 02:49:57;;;;;;;1999.90;999.90;;;-3.70;99.90;;;;;;5050084;28;20460;-69
2023/02/10 02:52:32;;;;;;;1999.90;999.90;;;-3.80;99.90;;;;;;5050077;28;20448;-68
2023/02/10 02:55:04;;;;;;;1999.90;999.90;;;-3.80;99.90;;;;;;5050149;28;20447;-70
2023/02/10 02:57:41;;;;;;;1999.90;999.90;;;-3.80;99.90;;;;;;5050426;28;20443;-70
2023/02/10 03:00:12;;;;;;;1999.90;999.90;;;-3.80;99.90;;;;;;5050328;28;20460;-70
2023/02/10 03:02:41;;;;;;;1999.90;999.90;;;-3.80;99.90;;;;;;5049282;28;20436;-70
2023/02/10 03:05:09;;;;;;;1999.90;999.90;;;-3.80;99.90;;;;;;5049607;28;20478;-68
2023/02/10 03:07:36;;;;;;;1999.90;999.90;;;-3.80;99.90;;;;;;5049570;28;21139;-69
2023/02/10 03:10:04;;;;;;;1999.90;999.90;;;-3.90;99.90;;;;;;5050334;28;20448;-69
2023/02/10 03:12:31;;;;;;;1999.90;999.90;;;-3.90;99.90;;;;;;5050124;28;20451;-69
2023/02/10 03:14:57;;;;;;;1999.90;999.90;;;-3.80;99.90;;;;;;5048991;28;20447;-70
2023/02/10 03:17:24;;;;;;;1999.90;999.90;;;-3.90;99.90;;;;;;5049812;28;20523;-69
2023/02/10 03:19:51;;;;;;;1999.90;999.90;;;-3.90;99.90;;;;;;5049693;28;20474;-70
2023/02/10 03:22:19;;;;;;;1999.90;999.90;;;-3.80;99.90;;;;;;5061690;28;20471;-69
2023/02/10 03:24:46;;;;;;;1999.90;999.90;;;-3.90;99.90;;;;;;5069631;28;20447;-70
2023/02/10 03:27:13;;;;;;;1999.90;999.90;;;-3.90;99.90;;;;;;5069554;28;20490;-70
2023/02/10 03:29:40;;;;;;;1999.90;999.90;;;-3.80;99.90;;;;;;5069769;28;20475;-70
2023/02/10 03:32:07;;;;;;;1999.90;999.90;;;-3.90;99.90;;;;;;5069075;28;20474;-68
2023/02/10 03:34:33;;;;;;;1999.90;999.90;;;-3.90;99.90;;;;;;5069154;28;20435;-69
2023/02/10 03:37:01;;;;;;;1999.90;999.90;;;-4.00;99.90;;;;;;5052927;28;20827;-69
2023/02/10 03:39:29;;;;;;;1999.90;999.90;;;-3.90;99.90;;;;;;5049603;28;20451;-69
2023/02/10 03:41:56;;;;;;;1999.90;999.90;;;-4.00;99.90;;;;;;5049395;28;20470;-69
2023/02/10 03:44:22;;;;;;;1999.90;999.90;;;-4.10;99.90;;;;;;5049059;28;20525;-69
2023/02/10 03:46:49;;;;;;;1999.90;999.90;;;-4.20;99.90;;;;;;5049071;28;20891;-69
2023/02/10 03:49:16;;;;;;;1999.90;999.90;;;-4.20;99.90;;;;;;5050197;28;20439;-69
2023/02/10 03:51:43;;;;;;;1999.90;999.90;;;-4.20;99.90;;;;;;5069153;28;20471;-69
2023/02/10 03:54:10;;;;;;;1999.90;999.90;;;-4.10;99.90;;;;;;5069035;28;20469;-68
2023/02/10 03:56:38;;;;;;;1999.90;999.90;;;-4.10;99.90;;;;;;5069477;28;20524;-70
2023/02/10 03:59:06;;;;;;;1999.90;999.90;;;-4.00;99.90;;;;;;5059649;28;20555;-70
2023/02/10 04:01:33;;;;;;;1999.90;999.90;;;-4.00;99.90;;;;;;5049017;28;20468;-70
2023/02/10 04:04:00;;;;;;;1999.90;999.90;;;-4.20;99.90;;;;;;5048803;28;20874;-69
2023/02/10 04:06:27;;;;;;;1999.90;999.90;;;-4.20;99.90;;;;;;5049141;28;20487;-69
2023/02/10 04:08:54;;;;;;;1999.90;999.90;;;-4.30;99.90;;;;;;5048998;28;20446;-72
2023/02/10 04:11:21;;;;;;;1999.90;999.90;;;-4.20;99.90;;;;;;5049018;28;20467;-69
2023/02/10 04:13:49;;;;;;;1999.90;999.90;;;-4.20;99.90;;;;;;5061719;28;20447;-71
2023/02/10 04:16:19;;;;;;;1999.90;999.90;;;-4.20;99.90;;;;;;5068776;28;20448;-70
2023/02/10 04:18:46;;;;;;;1999.90;999.90;;;-4.20;99.90;;;;;;5069119;28;20455;-70
2023/02/10 04:21:14;;;;;;;1999.90;999.90;;;-4.20;99.90;;;;;;5068789;28;20463;-70
2023/02/10 04:23:41;;;;;;;1999.90;999.90;;;-4.20;99.90;;;;;;5068926;28;20457;-70
2023/02/10 04:26:08;;;;;;;1999.90;999.90;;;-4.20;99.90;;;;;;5070036;28;20825;-70
2023/02/10 04:28:34;;;;;;;1999.90;999.90;;;-4.20;99.90;;;;;;5053635;28;20459;-70
2023/02/10 04:31:05;;;;;;;1999.90;999.90;;;-4.20;99.90;;;;;;5052710;28;20479;-70
2023/02/10 04:33:32;;;;;;;1999.90;999.90;;;-4.20;99.90;;;;;;5052234;28;20948;-68
2023/02/10 04:36:01;;;;;;;1999.90;999.90;;;-4.20;99.90;;;;;;5052998;28;20458;-70
2023/02/10 04:38:28;;;;;;;1999.90;999.90;;;-4.30;99.90;;;;;;5052429;28;21016;-70
2023/02/10 04:40:55;;;;;;;1999.90;999.90;;;-4.30;99.90;;;;;;5055617;28;20466;-70
2023/02/10 04:43:22;;;;;;;1999.90;999.90;;;-4.30;99.90;;;;;;5072147;28;20963;-70
2023/02/10 04:45:49;;;;;;;1999.90;999.90;;;-4.40;99.90;;;;;;5072820;28;20541;-70
2023/02/10 04:48:17;;;;;;;1999.90;999.90;;;-4.40;99.90;;;;;;5072597;28;20491;-70
2023/02/10 04:50:44;;;;;;;1999.90;999.90;;;-4.50;99.90;;;;;;5072094;28;21020;-71
2023/02/10 04:53:11;;;;;;;1999.90;999.90;;;-4.50;99.90;;;;;;5072262;28;20533;-69
2023/02/10 04:55:37;;;;;;;1999.90;999.90;;;-4.50;99.90;;;;;;5064436;28;20454;-70
2023/02/10 04:58:05;;;;;;;1999.90;999.90;;;-4.60;99.90;;;;;;5052665;28;20866;-68
2023/02/10 05:00:32;;;;;;;1999.90;999.90;;;-4.60;99.90;;;;;;5052296;28;20479;-70
2023/02/10 05:02:58;;;;;;;1999.90;999.90;;;-4.60;99.90;;;;;;5069234;28;20435;-70
2023/02/10 05:05:27;;;;;;;1999.90;999.90;;;-4.60;99.90;;;;;;5071910;28;20446;-70
2023/02/10 05:07:54;;;;;;;1999.90;999.90;;;-4.60;99.90;;;;;;5071641;28;20506;-70
2023/02/10 05:10:21;;;;;;;1999.90;999.90;;;-4.60;99.90;;;;;;5059029;28;20523;-70
2023/02/10 05:12:48;;;;;;;1999.90;999.90;;;-4.60;99.90;;;;;;5052046;28;20448;-70
2023/02/10 05:15:14;;;;;;;1999.90;999.90;;;-4.70;99.90;;;;;;5052148;28;20448;-70
2023/02/10 05:17:42;;;;;;;1999.90;999.90;;;-4.70;99.90;;;;;;5052634;28;21030;-69
2023/02/10 05:20:10;;;;;;;1999.90;999.90;;;-4.60;99.90;;;;;;5053055;28;20940;-70
2023/02/10 05:22:39;;;;;;;1999.90;999.90;;;-4.60;99.90;;;;;;5053061;28;20447;-70
2023/02/10 05:25:06;;;;;;;1999.90;999.90;;;-4.50;99.90;;;;;;5071120;28;20469;-70
2023/02/10 05:27:33;;;;;;;1999.90;999.90;;;-4.60;99.90;;;;;;5074642;28;20479;-69
2023/02/10 05:30:00;;;;;;;1999.90;999.90;;;-4.60;99.90;;;;;;5074188;28;21058;-69
2023/02/10 05:32:27;;;;;;;1999.90;999.90;;;-4.60;99.90;;;;;;5071207;28;20546;-70
2023/02/10 05:34:53;;;;;;;1999.90;999.90;;;-4.70;99.90;;;;;;5070551;22;20501;-69
2023/02/10 05:37:20;;;;;;;1999.90;999.90;;;-4.50;99.90;;;;;;5030674;28;20449;-70
2023/02/10 05:39:48;;;;;;;1999.90;999.90;;;-4.50;99.90;;;;;;5050376;28;20921;-66
2023/02/10 05:42:15;;;;;;;1999.90;999.90;;;-4.60;99.90;;;;;;5050551;28;21009;-69
2023/02/10 05:44:42;;;;;;;1999.90;999.90;;;-4.60;99.90;;;;;;5050665;28;20456;-68
2023/02/10 05:47:09;;;;;;;1999.90;999.90;;;-4.60;99.90;;;;;;5050724;28;20498;-67
2023/02/10 05:49:36;;;;;;;1999.90;999.90;;;-4.60;99.90;;;;;;5050518;28;20455;-69
2023/02/10 05:52:03;;;;;;;1999.90;999.90;;;-4.70;99.90;;;;;;5045380;28;20998;-69
2023/02/10 05:54:30;;;;;;;1999.90;999.90;;;-4.70;99.90;;;;;;5030441;28;20453;-68
2023/02/10 05:56:59;;;;;;;1999.90;999.90;;;-4.60;99.90;;;;;;5030291;28;20506;-69
2023/02/10 05:59:26;;;;;;;1999.90;999.90;;;-4.40;99.90;;;;;;5042309;28;20452;-68
2023/02/10 06:01:52;;;;;;;1999.90;999.90;;;-4.40;99.90;;;;;;5047877;28;20460;-70
2023/02/10 06:04:19;;;;;;;1999.90;999.90;;;-4.40;99.90;;;;;;5024329;28;20480;-68
2023/02/10 06:06:46;;;;;;;1999.90;999.90;;;-4.50;99.90;;;;;;5029621;28;20453;-66
2023/02/10 06:09:13;;;;;;;1999.90;999.90;;;-4.50;99.90;;;;;;5029073;28;20461;-67
2023/02/10 06:11:40;;;;;;;1999.90;999.90;;;-4.60;99.90;;;;;;5030223;28;20555;-68
2023/02/10 06:14:08;;;;;;;1999.90;999.90;;;-4.70;99.90;;;;;;5030023;28;20461;-68
2023/02/10 06:16:35;;;;;;;1999.90;999.90;;;-4.60;99.90;;;;;;5029392;28;20500;-65
2023/02/10 06:19:01;;;;;;;1999.90;999.90;;;-4.70;99.90;;;;;;5029686;28;20461;-67
2023/02/10 06:21:28;;;;;;;1999.90;999.90;;;-4.60;99.90;;;;;;5029664;28;21009;-67
2023/02/10 06:23:55;;;;;;;1999.90;999.90;;;-4.70;99.90;;;;;;5029756;28;20977;-67
2023/02/10 06:26:22;;;;;;;1999.90;999.90;;;-4.70;99.90;;;;;;5029904;28;20468;-67
2023/02/10 06:28:49;;;;;;;1999.90;999.90;;;-4.70;99.90;;;;;;5029421;28;20512;-68
2023/02/10 06:31:17;;;;;;;1999.90;999.90;;;-4.60;99.90;;;;;;5029853;28;20559;-67
2023/02/10 06:33:43;;;;;;;1999.90;999.90;;;-4.50;99.90;;;;;;5029651;28;20449;-68
2023/02/10 06:36:11;;;;;;;1999.90;999.90;;;-4.50;99.90;;;;;;5029850;28;20471;-67
2023/02/10 06:38:38;;;;;;;1999.90;999.90;;;-4.50;99.90;;;;;;5029724;28;20453;-68
2023/02/10 06:41:06;;;;;;;1999.90;999.90;;;-4.50;99.90;;;;;;5029533;28;20469;-69
2023/02/10 06:43:33;;;;;;;1999.90;999.90;;;-4.60;99.90;;;;;;5029472;28;20469;-67
2023/02/10 06:46:00;;;;;;;1999.90;999.90;;;-4.60;99.90;;;;;;5036076;28;20448;-69
2023/02/10 06:48:28;;;;;;;1999.90;999.90;;;-4.70;99.90;;;;;;5049340;28;20490;-68
2023/02/10 06:50:55;;;;;;;1999.90;999.90;;;-4.80;99.90;;;;;;5049463;28;20467;-68
2023/02/10 06:53:21;;;;;;;1999.90;999.90;;;-4.70;99.90;;;;;;5049504;28;20448;-71
2023/02/10 06:55:48;;;;;;;1999.90;999.90;;;-4.60;99.90;;;;;;5049915;28;20451;-68
2023/02/10 06:58:16;;;;;;;1999.90;999.90;;;-4.50;99.90;;;;;;5038120;28;20900;-68
2023/02/10 07:00:43;;;;;;;1999.90;999.90;;;-4.40;99.90;;;;;;5029868;28;20548;-67
2023/02/10 07:03:11;;;;;;;1999.90;999.90;;;-4.30;99.90;;;;;;5029142;28;20457;-67
2023/02/10 07:05:40;;;;;;;1999.90;999.90;;;-4.40;99.90;;;;;;5029705;28;20449;-68
2023/02/10 07:08:07;;;;;;;1999.90;999.90;;;-4.40;99.90;;;;;;5029469;28;20929;-68
2023/02/10 07:10:34;;;;;;;1999.90;999.90;;;-4.40;99.90;;;;;;5029144;28;20475;-67
2023/02/10 07:13:00;;;;;;;1999.90;999.90;;;-4.30;99.90;;;;;;5045405;28;20834;-69
2023/02/10 07:15:27;;;;;;;1999.90;999.90;;;-4.30;99.90;;;;;;5049204;28;20547;-67
2023/02/10 07:17:54;;;;;;;1999.90;999.90;;;-4.20;99.90;;;;;;5049370;28;20828;-68
2023/02/10 07:20:22;;;;;;;1999.90;999.90;;;-4.10;99.90;;;;;;5048979;28;20470;-68
2023/02/10 07:22:51;;;;;;;1999.90;999.90;;;-4.00;99.90;;;;;;5049054;28;20945;-68
2023/02/10 07:25:18;;;;;;;1999.90;999.90;;;-3.90;99.90;;;;;;5049137;28;20452;-67
2023/02/10 07:27:45;;;;;;;1999.90;999.90;;;-3.80;99.90;;;;;;5049003;28;20475;-68
2023/02/10 07:30:13;;;;;;;1999.90;999.90;;;-3.70;99.90;;;;;;5046716;28;20468;-67
2023/02/10 07:32:41;;;;;;;1999.90;999.90;;;-3.70;99.90;;;;;;5048879;28;20569;-67
2023/02/10 07:35:08;;;;;;;1999.90;999.90;;;-3.60;99.90;;;;;;5041267;28;20459;-68
2023/02/10 07:37:35;;;;;;;1999.90;999.90;;;-3.50;99.90;;;;;;5032957;28;20531;-67
2023/02/10 07:40:04;;;;;;;1999.90;999.90;;;-3.30;99.90;;;;;;5030909;28;20452;-67
2023/02/10 07:42:31;;;;;;;1999.90;999.90;;;-3.20;99.90;;;;;;5033748;28;20451;-67
2023/02/10 07:45:01;;;;;;;1999.90;999.90;;;-3.00;99.90;;;;;;5039285;28;20815;-67
2023/02/10 07:47:28;;;;;;;1999.90;999.90;;;-2.90;99.90;;;;;;5029784;28;20468;-69
2023/02/10 07:49:55;;;;;;;1999.90;999.90;;;-2.80;99.90;;;;;;5029891;28;20841;-67
2023/02/10 07:52:21;;;;;;;1999.90;999.90;;;-2.60;99.90;;;;;;5028302;28;20449;-67
2023/02/10 07:54:48;;;;;;;1999.90;999.90;;;-2.50;99.90;;;;;;5040393;28;20555;-68
2023/02/10 07:57:16;;;;;;;1999.90;999.90;;;-2.40;99.90;;;;;;5043822;28;20459;-67
2023/02/10 07:59:43;;;;;;;1999.90;999.90;;;-2.40;99.90;;;;;;5032317;28;20452;-70
2023/02/10 08:02:11;;;;;;;1999.90;999.90;;;-2.30;99.90;;;;;;5047373;28;20469;-68
2023/02/10 08:04:37;;;;;;;1999.90;999.90;;;-2.20;99.90;;;;;;5033870;28;20455;-68
2023/02/10 08:07:04;;;;;;;1999.90;999.90;;;-2.20;99.90;;;;;;5032744;28;20449;-68
2023/02/10 08:09:31;;;;;;;1999.90;999.90;;;-2.10;99.90;;;;;;5033244;28;20507;-68
2023/02/10 08:11:58;;;;;;;1999.90;999.90;;;-2.00;99.90;;;;;;5032361;28;20535;-68
2023/02/10 08:14:26;;;;;;;1999.90;999.90;;;-1.90;99.90;;;;;;5032709;28;20827;-69
2023/02/10 08:16:59;;;;;;;1999.90;999.90;;;-1.80;99.90;;;;;;5032597;28;20533;-67
2023/02/10 08:19:25;;;;;;;1999.90;999.90;;;-1.70;99.90;;;;;;5032073;28;20771;-67
2023/02/10 08:21:52;;;;;;;1999.90;999.90;;;-1.50;99.90;;;;;;5032540;28;20472;-67
2023/02/10 08:24:19;;;;;;;1999.90;999.90;;;-1.40;99.90;;;;;;5032039;28;20452;-67
2023/02/10 08:26:46;;;;;;;1999.90;999.90;;;-1.20;99.90;;;;;;5032437;28;21110;-68
2023/02/10 08:29:12;;;;;;;1999.90;999.90;;;-1.00;99.90;;;;;;5033205;28;20473;-68
2023/02/10 08:31:41;;;;;;;1999.90;999.90;;;-0.90;99.90;;;;;;5032075;28;20977;-68
2023/02/10 08:34:15;;;;;;;1999.90;999.90;;;-0.70;99.90;;;;;;5031675;28;20459;-68
2023/02/10 08:36:43;;;;;;;1999.90;999.90;;;-0.50;99.90;;;;;;5031096;28;20559;-69
2023/02/10 08:39:10;;;;;;;1999.90;999.90;;;-0.40;99.90;;;;;;5032366;28;20933;-67
2023/02/10 08:41:37;;;;;;;1999.90;999.90;;;-0.30;99.90;;;;;;5032018;28;20483;-68
2023/02/10 08:44:04;;;;;;;1999.90;999.90;;;-0.10;99.90;;;;;;5031925;28;20451;-68
2023/02/10 08:46:31;;;;;;;1999.90;999.90;;;0.20;99.90;;;;;;5031569;28;20452;-71
2023/02/10 08:49:00;;;;;;;1999.90;999.90;;;0.30;99.90;;;;;;5031791;28;20488;-68
2023/02/10 08:51:28;;;;;;;1999.90;999.90;;;0.60;99.90;;;;;;5031900;28;20472;-69
2023/02/10 08:53:55;;;;;;;1999.90;999.90;;;0.70;99.90;;;;;;5032000;28;20449;-69
2023/02/10 08:56:23;;;;;;;1999.90;999.90;;;0.80;99.90;;;;;;5032400;28;20453;-68
2023/02/10 08:58:51;;;;;;;1999.90;999.90;;;1.00;99.90;;;;;;5032282;28;20500;-68
2023/02/10 09:01:20;;;;;;;1999.90;999.90;;;1.10;99.90;;;;;;5032026;28;20811;-67
2023/02/10 09:03:47;;;;;;;1999.90;999.90;;;1.40;99.90;;;;;;5031187;28;21032;-69
2023/02/10 09:06:17;;;;;;;1999.90;999.90;;;1.50;99.90;;;;;;5032148;28;20449;-68
2023/02/10 09:08:45;;;;;;;1999.90;999.90;;;1.70;99.90;;;;;;5031594;28;20472;-69
2023/02/10 09:11:12;;;;;;;1999.90;999.90;;;1.80;99.90;;;;;;5031597;28;20468;-69
2023/02/10 09:13:38;;;;;;;1999.90;999.90;;;2.10;99.90;;;;;;5029862;28;20966;-68
2023/02/10 09:16:06;;;;;;;1999.90;999.90;;;2.30;99.90;;;;;;5031792;28;21175;-69
2023/02/10 09:18:33;;;;;;;1999.90;999.90;;;2.40;99.90;;;;;;5032353;28;20812;-68
2023/02/10 09:21:00;;;;;;;1999.90;999.90;;;2.60;99.90;;;;;;5051389;28;20467;-69
2023/02/10 09:23:29;;;;;;;1999.90;999.90;;;2.70;99.90;;;;;;5051296;28;20451;-68
2023/02/10 09:25:56;;;;;;;1999.90;999.90;;;2.70;99.90;;;;;;5051210;28;20460;-69
2023/02/10 09:28:23;;;;;;;1999.90;999.90;;;2.90;99.90;;;;;;5051625;28;20491;-67
2023/02/10 09:30:50;;;;;;;1999.90;999.90;;;3.00;99.90;;;;;;5051175;28;20475;-70
2023/02/10 09:33:17;;;;;;;1999.90;999.90;;;3.30;99.90;;;;;;5051035;28;20451;-69
2023/02/10 09:35:44;;;;;;;1999.90;999.90;;;3.50;99.90;;;;;;5049142;28;21021;-69
2023/02/10 09:38:12;;;;;;;1999.90;999.90;;;3.60;99.90;;;;;;5051326;28;20440;-70
2023/02/10 09:40:50;;;;;;;1999.90;999.90;;;3.80;99.90;;;;;;5037120;28;20552;-68
2023/02/10 09:43:27;;;;;;;1999.90;999.90;;;4.00;99.90;;;;;;5030915;28;20457;-67
2023/02/10 09:46:01;;;;;;;1999.90;999.90;;;4.30;99.90;;;;;;5031739;28;21044;-64
2023/02/10 09:48:36;;;;;;;1999.90;999.90;;;4.50;99.90;;;;;;5031083;28;20488;-69
2023/02/10 09:51:12;;;;;;;1999.90;999.90;;;4.60;99.90;;;;;;5031271;28;20465;-69
2023/02/10 09:53:39;;;;;;;1999.90;999.90;;;4.80;99.90;;;;;;5045432;28;20952;-66
2023/02/10 09:56:21;;;;;;;1999.90;999.90;;;5.10;99.90;;;;;;5050931;28;20499;-68
2023/02/10 09:58:52;;;;;;;1999.90;999.90;;;5.30;99.90;;;;;;5043446;28;20463;-67
2023/02/10 10:01:23;;;;;;;1999.90;999.90;;;5.60;99.90;;;;;;5030516;28;20551;-69
2023/02/10 10:03:55;;;;;;;1999.90;999.90;;;5.80;99.90;;;;;;5030394;28;20484;-68
2023/02/10 10:06:27;;;;;;;1999.90;999.90;;;6.30;99.90;;;;;;5030839;28;20452;-68
2023/02/10 10:09:13;;;;;;;1999.90;999.90;;;6.50;99.90;;;;;;5030229;28;20990;-66
2023/02/10 10:11:45;;;;;;;1999.90;999.90;;;6.80;99.90;;;;;;5030623;28;20527;-66
2023/02/10 10:14:18;;;;;;;1999.90;999.90;;;7.30;99.90;;;;;;5030308;28;20449;-67
2023/02/10 10:17:01;;;;;;;1999.90;999.90;;;7.70;99.90;;;;;;5030176;28;20935;-67
2023/02/10 10:19:42;;;;;;;1999.90;999.90;;;7.70;99.90;;;;;;5030247;28;20451;-67
2023/02/10 10:22:26;;;;;;;1999.90;999.90;;;7.90;99.90;;;;;;5029841;28;20556;-68
2023/02/10 10:25:08;;;;;;;1999.90;999.90;;;8.00;99.40;;;;;;5030018;28;20449;-68
2023/02/10 10:27:51;;;;;;;1999.90;999.90;;;8.30;99.70;;;;;;5030274;28;20457;-67
2023/02/10 10:30:20;;;;;;;1999.90;999.90;;;8.80;98.90;;;;;;5030259;28;20491;-67
2023/02/10 10:32:50;;;;;;;1999.90;999.90;;;8.60;97.90;;;;;;5029617;28;20503;-66
2023/02/10 10:35:19;;;;;;;1999.90;999.90;;;8.80;97.40;;;;;;5030334;28;20559;-67
2023/02/10 10:37:46;;;;;;;1999.90;999.90;;;9.00;96.50;;;;;;5030302;28;20503;-66
2023/02/10 10:40:18;;;;;;;1999.90;999.90;;;9.20;96.70;;;;;;5030051;28;20456;-69
2023/02/10 10:42:49;;;;;;;1999.90;999.90;;;9.80;95.80;;;;;;5029788;28;20483;-67
2023/02/10 10:45:20;;;;;;;1999.90;999.90;;;9.90;94.80;;;;;;5029511;28;20947;-67
2023/02/10 10:47:52;;;;;;;1999.90;999.90;;;9.50;94.60;;;;;;5030058;28;20456;-68
2023/02/10 10:50:21;;;;;;;1999.90;999.90;;;9.80;95.00;;;;;;5029985;28;20484;-68
2023/02/10 10:52:51;;;;;;;1999.90;999.90;;;10.40;94.80;;;;;;5029367;28;20449;-68
2023/02/10 10:55:23;;;;;;;1999.90;999.90;;;10.80;92.20;;;;;;5027085;28;20515;-67
2023/02/10 10:57:53;;;;;;;1999.90;999.90;;;10.50;91.60;;;;;;5029626;28;20453;-70
2023/02/10 11:00:23;;;;;;;1999.90;999.90;;;10.70;91.50;;;;;;5029055;28;20464;-67
2023/02/10 11:02:58;;;;;;;1999.90;999.90;;;11.30;91.70;;;;;;5029793;28;20449;-67
2023/02/10 11:05:30;;;;;;;1999.90;999.90;;;11.60;89.20;;;;;;5028255;28;20448;-67
2023/02/10 11:07:57;;;;;;;1999.90;999.90;;;11.30;89.20;;;;;;5028969;28;20445;-69
2023/02/10 11:10:35;;;;;;;1999.90;999.90;;;11.60;90.50;;;;;;5030392;28;20492;-69
2023/02/10 11:13:04;;;;;;;1999.90;999.90;;;12.20;90.30;;;;;;5030103;28;20437;-66
2023/02/10 11:15:36;;;;;;;1999.90;999.90;;;13.00;87.70;;;;;;5028638;28;20515;-68
2023/02/10 11:18:05;;;;;;;1999.90;999.90;;;13.70;86.50;;;;;;5026783;28;20448;-68
2023/02/10 11:20:34;;;;;;;1999.90;999.90;;;14.10;80.30;;;;;;5027919;28;20480;-68
2023/02/10 11:23:04;;;;;;;1999.90;999.90;;;14.40;78.70;;;;;;5027702;28;20472;-67
2023/02/10 11:25:42;;;;;;;1999.90;999.90;;;14.50;76.70;;;;;;5028644;28;20456;-66
2023/02/10 11:28:20;;;;;;;1999.90;999.90;;;14.80;74.20;;;;;;5027190;28;20467;-68
2023/02/10 11:30:48;;;;;;;1999.90;999.90;;;14.40;74.40;;;;;;5026890;28;20488;-66
2023/02/10 11:33:22;;;;;;;1999.90;999.90;;;13.20;75.60;;;;;;5028024;28;20445;-69
2023/02/10 11:35:50;;;;;;;1999.90;999.90;;;12.60;77.60;;;;;;5029507;28;20460;-66
2023/02/10 11:38:20;;;;;;;1999.90;999.90;;;12.40;77.90;;;;;;5028542;28;20476;-67
2023/02/10 11:40:52;;;;;;;1999.90;999.90;;;12.10;78.70;;;;;;5028624;28;20488;-67
2023/02/10 11:43:22;;;;;;;1999.90;999.90;;;10.80;79.90;;;;;;5026334;28;20445;-66
2023/02/10 11:45:54;;;;;;;1999.90;999.90;;;10.00;81.80;;;;;;5028735;28;20464;-67
2023/02/10 11:48:23;;;;;;;1999.90;999.90;;;9.20;86.40;;;;;;5026509;28;20445;-66
2023/02/10 11:51:01;;;;;;;1999.90;999.90;;;8.60;86.50;;;;;;5028256;28;20485;-66
2023/02/10 11:53:30;;;;;;;1999.90;999.90;;;8.70;87.00;;;;;;5028918;28;20441;-67
2023/02/10 11:56:01;;;;;;;1999.90;999.90;;;8.40;85.80;;;;;;5028643;28;20449;-69
2023/02/10 11:58:58;;;;;;;1999.90;999.90;;;8.10;86.60;;;;;;5029946;28;20985;-66
2023/02/10 12:01:38;;;;;;;1999.90;999.90;;;7.50;89.70;;;;;;5026727;28;20495;-68
2023/02/10 12:04:25;;;;;;;1999.90;999.90;;;7.20;90.80;;;;;;5026099;28;20433;-66
2023/02/10 12:06:58;;;;;;;1999.90;999.90;;;7.00;91.10;;;;;;5026879;28;20977;-68
2023/02/10 12:09:31;;;;;;;1999.90;999.90;;;6.90;91.40;;;;;;5028258;28;20480;-69
2023/02/10 12:12:05;;;;;;;1999.90;999.90;;;6.90;92.00;;;;;;5032290;28;20468;-67
2023/02/10 12:14:47;;;;;;;1999.90;999.90;;;6.80;92.40;;;;;;5040147;28;20898;-68